Accueil
METAR-TAF:

METAR-TAF

Aéroports :

Aéroport de Palma de Majorque

Palma de Majorque, Espagne

latitude: 39-33N, longitude: 002-44E, altitude: 4 m

Observation

Le bulletin a été fait il y a 35 minutes, à 22:00 UTC
Vent 3 kt de nord-est
Température 13°C
Humidité 100%
Pression 1019 hPa
Visibilité 10 km ou plus
pas de nuages en-dessous de 1500 mètres et pas de cumulonimbus.

METAR: LEPA 122200Z 05003KT CAVOK 13/13 Q1019 NOSIG

Heure: 23:35 (22:35 UTC)

Prévision

Le bulletin a été fait il y a 5 heures et 35 minutes, à 17:00 UTC
Prévision valable du 12 à 18 UTC au 13 à 18 UTC
Vent 10 kt de sud/sud-est
Visibilité 10 km ou plus
Nuages épars à une hauteur de 1500 ft
Evoluant progressivement
du 12 à 18 UTC au 12 à 19 UTC
Vent 6 kt de nord-est

TAF: LEPA 121700Z 1218/1318 15010KT 9999 SCT015 TX23/1312Z TN12/1306Z BECMG 1218/1219 04006KT

Observations et prévisions météorologiques de plus de 4000 aéroports (messages METAR et TAF).

Les stations disponibles sont représentées par des disques jaunes et rouges sur la carte.

Passer la souris dessus pour voir le nom de la station.

Cliquer dessus pour voir les observations et prévisions météorologiques.

Pour changer de carte: cliquez sur les boutons verts avec une croix noire pour zoomer, sur le bouton vert avec un tiret pour effectuer un zoom arrière, ou sur les flèches vertes pour les cartes adjacentes.


METAR-TAF: